Time;durP1;ratioP1;P1;durP2;ratioP2;P2;SDS_P1;SDS_P2;PMS_P1;PMS_P2;Temp;Humidity;BMP_temperature;BMP_pressure;BME280_temperature;BME280_humidity;BME280_pressure;Samples;Min_cycle;Max_cycle;Signal;HPM_P1;HPM_P2
2022/08/07 00:00:20;;;;;;;9.45;5.60;;;;;;;13.28;100.00;102891.22;7379276;19;20019;-74
2022/08/07 00:02:54;;;;;;;12.07;6.22;;;;;;;13.27;100.00;102884.16;7374431;19;20097;-73
2022/08/07 00:05:26;;;;;;;9.95;5.88;;;;;;;13.27;100.00;102871.00;7376786;19;20014;-73
2022/08/07 00:07:57;;;;;;;9.93;5.55;;;;;;;13.29;100.00;102882.47;7382110;19;20017;-72
2022/08/07 00:10:31;;;;;;;10.68;6.00;;;;;;;13.28;100.00;102883.31;7379966;19;20575;-73
2022/08/07 00:13:06;;;;;;;10.85;6.30;;;;;;;13.28;100.00;102879.78;7381101;19;20467;-73
2022/08/07 00:15:56;;;;;;;8.77;5.20;;;;;;;13.23;100.00;102879.63;7380738;19;20055;-73
2022/08/07 00:18:31;;;;;;;10.00;5.18;;;;;;;13.19;100.00;102880.38;7379335;19;20017;-74
2022/08/07 00:21:03;;;;;;;9.35;5.57;;;;;;;13.14;100.00;102875.75;7373668;19;20569;-73
2022/08/07 00:23:38;;;;;;;9.93;5.85;;;;;;;13.10;100.00;102880.91;7369420;19;20048;-74
2022/08/07 00:26:12;;;;;;;11.98;5.70;;;;;;;13.08;100.00;102881.69;7372903;19;20011;-74
2022/08/07 00:29:02;;;;;;;11.60;6.03;;;;;;;13.03;100.00;102878.91;7377657;19;20490;-74
2022/08/07 00:31:34;;;;;;;11.30;5.72;;;;;;;13.01;100.00;102879.69;7376337;19;20069;-73
2022/08/07 00:34:15;;;;;;;10.18;5.93;;;;;;;12.97;100.00;102876.03;7371333;19;20057;-73
2022/08/07 00:36:50;;;;;;;14.02;7.35;;;;;;;12.94;100.00;102872.41;7373753;19;20047;-74
2022/08/07 00:39:21;;;;;;;8.75;5.45;;;;;;;12.91;100.00;102872.28;7367408;19;20015;-73
2022/08/07 00:41:54;;;;;;;10.00;5.90;;;;;;;12.90;100.00;102873.13;7375385;19;20079;-74
2022/08/07 00:44:33;;;;;;;11.65;5.97;;;;;;;12.88;100.00;102872.19;7375892;19;21262;-73
2022/08/07 00:47:08;;;;;;;9.20;5.57;;;;;;;12.86;100.00;102861.59;7373939;19;20003;-74
2022/08/07 00:50:01;;;;;;;12.10;6.22;;;;;;;12.85;100.00;102865.06;7377278;19;20010;-74
2022/08/07 00:52:54;;;;;;;12.18;6.35;;;;;;;12.82;100.00;102866.69;7373021;19;20523;-74
2022/08/07 00:55:28;;;;;;;12.13;6.18;;;;;;;12.78;100.00;102869.22;7377087;19;20028;-74
2022/08/07 00:58:21;;;;;;;10.52;5.95;;;;;;;12.74;100.00;102858.50;7373708;19;20348;-74
2022/08/07 01:00:54;;;;;;;11.50;6.10;;;;;;;12.73;100.00;102856.72;7377201;19;20011;-73
2022/08/07 01:03:25;;;;;;;10.93;6.38;;;;;;;12.70;100.00;102857.50;7377228;19;20022;-74
2022/08/07 01:06:19;;;;;;;15.23;7.07;;;;;;;12.70;100.00;102856.59;7375263;19;20403;-74
2022/08/07 01:08:52;;;;;;;10.15;6.00;;;;;;;12.65;100.00;102853.81;7375757;19;20019;-74
2022/08/07 01:11:27;;;;;;;10.40;5.50;;;;;;;12.62;100.00;102853.69;7374207;19;20018;-73
2022/08/07 01:14:17;;;;;;;11.43;6.25;;;;;;;12.64;100.00;102854.66;7374681;19;20034;-73
2022/08/07 01:16:58;;;;;;;11.10;6.45;;;;;;;12.63;100.00;102851.97;7377107;19;20015;-74
2022/08/07 01:19:35;;;;;;;15.93;7.18;;;;;;;12.62;100.00;102847.53;7376729;19;20006;-73
2022/08/07 01:22:11;;;;;;;18.98;8.57;;;;;;;12.60;100.00;102849.22;7375712;19;20007;-73
2022/08/07 01:24:58;;;;;;;12.43;7.15;;;;;;;12.58;100.00;102849.16;7374818;19;20011;-73
2022/08/07 01:27:30;;;;;;;11.32;6.03;;;;;;;12.57;100.00;102850.00;7373539;19;20010;-75
2022/08/07 01:30:03;;;;;;;10.55;6.15;;;;;;;12.54;100.00;102844.63;7374629;19;20007;-75
2022/08/07 01:32:34;;;;;;;11.30;6.30;;;;;;;12.53;100.00;102847.19;7373208;19;20019;-75
2022/08/07 01:35:06;;;;;;;12.77;6.38;;;;;;;12.50;100.00;102845.34;7376062;19;20411;-74
2022/08/07 01:37:40;;;;;;;9.13;5.65;;;;;;;12.49;100.00;102846.19;7375783;19;20006;-74
2022/08/07 01:40:12;;;;;;;12.93;6.17;;;;;;;12.47;100.00;102847.91;7376743;19;20013;-74
2022/08/07 01:42:44;;;;;;;10.85;6.82;;;;;;;12.46;100.00;102848.72;7374540;19;20266;-73
2022/08/07 01:45:29;;;;;;;12.95;7.20;;;;;;;12.42;100.00;102838.94;7374675;19;20050;-75
2022/08/07 01:48:08;;;;;;;10.38;5.97;;;;;;;12.43;100.00;102848.63;7374137;19;20003;-74
2022/08/07 01:51:02;;;;;;;15.98;7.32;;;;;;;12.40;100.00;102849.41;7374462;19;20014;-74
2022/08/07 01:53:56;;;;;;;12.90;6.20;;;;;;;12.41;100.00;102838.03;7371172;19;20489;-74
2022/08/07 01:56:48;;;;;;;10.85;6.38;;;;;;;12.42;100.00;102846.81;7373938;19;20349;-74
2022/08/07 01:59:25;;;;;;;11.27;7.20;;;;;;;12.42;100.00;102841.56;7376269;19;20085;-74
2022/08/07 02:02:09;;;;;;;10.98;6.47;;;;;;;12.38;100.00;102837.03;7376781;19;20010;-75
2022/08/07 02:05:07;;;;;;;12.95;5.43;;;;;;;12.33;100.00;102836.84;7371390;19;20106;-74
2022/08/07 02:07:50;;;;;;;11.88;6.25;;;;;;;12.32;100.00;102834.16;7373203;19;20526;-74
2022/08/07 02:10:27;;;;;;;11.68;6.30;;;;;;;12.28;100.00;102834.88;7374979;19;20010;-74
2022/08/07 02:13:01;;;;;;;14.68;7.22;;;;;;;12.29;100.00;102834.03;7377209;19;20021;-74
2022/08/07 02:15:33;;;;;;;11.25;6.72;;;;;;;12.27;100.00;102831.34;7373422;19;20091;-74
2022/08/07 02:18:06;;;;;;;12.47;7.10;;;;;;;12.25;100.00;102829.50;7375814;19;20010;-75
2022/08/07 02:20:37;;;;;;;12.68;8.02;;;;;;;12.22;100.00;102821.50;7370406;19;20272;-75
2022/08/07 02:23:10;;;;;;;11.95;6.88;;;;;;;12.18;100.00;102822.22;7381488;19;20415;-76
2022/08/07 02:25:55;;;;;;;9.77;6.53;;;;;;;12.16;100.00;102830.06;7384467;19;20034;-75
2022/08/07 02:28:46;;;;;;;12.38;6.40;;;;;;;12.16;100.00;102821.25;7387332;19;20677;-75
2022/08/07 02:31:17;;;;;;;11.13;6.35;;;;;;;12.17;100.00;102820.41;7388867;19;20033;-74
2022/08/07 02:34:00;;;;;;;11.85;6.78;;;;;;;12.13;100.00;102813.25;7389081;19;20477;-74
2022/08/07 02:36:34;;;;;;;11.80;6.90;;;;;;;12.11;100.00;102816.72;7389848;19;20026;-74
2022/08/07 02:39:07;;;;;;;11.90;7.07;;;;;;;12.11;100.00;102814.09;7387047;19;20470;-74
2022/08/07 02:42:01;;;;;;;12.75;6.13;;;;;;;12.09;100.00;102813.13;7388190;19;20114;-74
2022/08/07 02:44:32;;;;;;;10.13;6.65;;;;;;;12.07;100.00;102813.91;7388268;19;20061;-75
2022/08/07 02:47:05;;;;;;;;;;;;;;;12.05;100.00;102815.59;7386505;19;20006;-74
2022/08/07 02:49:36;;;;;;;12.05;6.00;;;;;;;12.03;100.00;102822.53;7389014;19;19922;-73
2022/08/07 02:52:31;;;;;;;10.95;6.40;;;;;;;11.98;100.00;102819.72;7387138;19;20144;-74
2022/08/07 02:55:08;;;;;;;14.68;6.68;;;;;;;11.96;100.00;102821.38;7385415;19;20015;-74
2022/08/07 02:58:04;;;;;;;14.63;6.50;;;;;;;11.94;100.00;102815.16;7377994;19;20013;-75
2022/08/07 03:00:41;;;;;;;10.32;6.72;;;;;;;11.92;100.00;102814.22;7388341;19;20014;-74
2022/08/07 03:03:18;;;;;;;10.75;6.28;;;;;;;11.90;100.00;102812.34;7386199;19;20049;-74
2022/08/07 03:05:54;;;;;;;11.48;6.03;;;;;;;11.87;100.00;102813.13;7392943;19;20015;-74
2022/08/07 03:08:26;;;;;;;10.95;5.97;;;;;;;11.87;100.00;102815.75;7388707;19;20332;-74
2022/08/07 03:10:59;;;;;;;11.55;7.03;;;;;;;11.88;100.00;102816.66;7388820;19;20265;-74
2022/08/07 03:13:32;;;;;;;12.43;6.97;;;;;;;11.87;100.00;102812.25;7392065;19;20356;-74
2022/08/07 03:16:07;;;;;;;14.45;6.80;;;;;;;11.86;100.00;102807.81;7388149;19;20466;-75
2022/08/07 03:18:38;;;;;;;12.20;6.30;;;;;;;11.84;100.00;102818.28;7393947;19;20022;-75
2022/08/07 03:21:13;;;;;;;12.55;7.18;;;;;;;11.83;100.00;102810.31;7390632;19;20018;-74
2022/08/07 03:23:51;;;;;;;12.20;7.00;;;;;;;11.82;100.00;102811.16;7389704;19;20018;-74
2022/08/07 03:26:42;;;;;;;11.70;6.47;;;;;;;11.78;100.00;102811.03;7392096;19;21139;-74
2022/08/07 03:29:35;;;;;;;13.10;6.65;;;;;;;11.78;100.00;102805.78;7388407;19;20019;-74
2022/08/07 03:32:09;;;;;;;11.57;6.78;;;;;;;11.76;100.00;102811.78;7391142;19;20573;-75
2022/08/07 03:34:44;;;;;;;11.57;6.47;;;;;;;11.74;100.00;102808.19;7381397;19;20606;-73
2022/08/07 03:37:32;;;;;;;14.48;7.43;;;;;;;11.72;100.00;102804.59;7377898;19;20010;-75
2022/08/07 03:40:16;;;;;;;15.05;6.80;;;;;;;11.69;100.00;102808.00;7380554;19;20517;-74
2022/08/07 03:42:47;;;;;;;13.70;7.30;;;;;;;11.66;100.00;102804.38;7379485;19;20017;-75
2022/08/07 03:45:22;;;;;;;13.05;6.88;;;;;;;11.63;100.00;102805.13;7375951;19;20033;-75
2022/08/07 03:48:01;;;;;;;17.45;8.90;;;;;;;11.64;100.00;102811.28;7377713;19;20011;-75
2022/08/07 03:50:32;;;;;;;35.83;15.20;;;;;;;11.62;100.00;102808.59;7380945;19;20070;-75
2022/08/07 03:53:06;;;;;;;23.02;12.18;;;;;;;11.64;100.00;102800.78;7374665;19;20344;-75
2022/08/07 03:55:38;;;;;;;17.58;9.50;;;;;;;11.63;100.00;102805.13;7377838;19;20014;-74
2022/08/07 03:58:31;;;;;;;14.32;7.93;;;;;;;11.61;100.00;102798.91;7379684;19;20106;-75
2022/08/07 04:01:25;;;;;;;24.52;8.85;;;;;;;11.59;100.00;102797.06;7377785;19;20014;-75
2022/08/07 04:03:57;;;;;;;22.40;11.20;;;;;;;11.56;100.00;102797.84;7377281;19;20018;-74
2022/08/07 04:06:29;;;;;;;21.65;11.18;;;;;;;11.56;100.00;102799.56;7374718;19;20050;-73
2022/08/07 04:09:08;;;;;;;16.15;9.35;;;;;;;11.54;100.00;102804.75;7378971;19;20021;-73
2022/08/07 04:11:46;;;;;;;15.60;8.38;;;;;;;11.54;100.00;102798.63;7376613;19;20007;-73
2022/08/07 04:14:37;;;;;;;16.67;9.23;;;;;;;11.53;100.00;102802.06;7377598;19;20031;-74
2022/08/07 04:17:17;;;;;;;18.55;8.82;;;;;;;11.53;100.00;102802.06;7377922;19;20059;-73
2022/08/07 04:19:50;;;;;;;18.65;10.43;;;;;;;11.51;100.00;102802.00;7376673;19;20677;-74
2022/08/07 04:22:25;;;;;;;16.05;8.77;;;;;;;11.51;100.00;102809.00;7380434;19;20032;-73
2022/08/07 04:25:01;;;;;;;16.20;9.18;;;;;;;11.49;100.00;102808.94;7378541;19;20018;-73
2022/08/07 04:27:31;;;;;;;17.38;9.77;;;;;;;11.54;100.00;102803.88;7375664;19;20011;-73
2022/08/07 04:30:09;;;;;;;16.15;9.10;;;;;;;11.55;100.00;102808.28;7378718;19;20041;-73
2022/08/07 04:33:07;;;;;;;19.17;10.20;;;;;;;11.55;100.00;102810.91;7380067;19;20220;-73
2022/08/07 04:35:39;;;;;;;16.85;9.85;;;;;;;11.55;100.00;102808.28;7377711;19;20010;-74
2022/08/07 04:38:13;;;;;;;19.23;10.88;;;;;;;11.54;100.00;102806.50;7376446;19;20492;-73
2022/08/07 04:40:46;;;;;;;20.52;11.30;;;;;;;11.54;100.00;102812.66;7376122;19;20018;-74
2022/08/07 04:43:27;;;;;;;16.50;9.60;;;;;;;11.55;100.00;102810.91;7379036;19;20113;-73
2022/08/07 04:46:28;;;;;;;18.08;9.73;;;;;;;11.51;100.00;102809.91;7377297;19;20011;-73
2022/08/07 04:49:16;;;;;;;17.60;9.90;;;;;;;11.51;100.00;102814.25;7374482;19;20011;-73
2022/08/07 04:52:04;;;;;;;17.50;9.40;;;;;;;11.53;100.00;102812.59;7377548;19;20398;-74
2022/08/07 04:54:42;;;;;;;15.70;9.20;;;;;;;11.56;100.00;102820.59;7372500;19;20034;-74
2022/08/07 04:57:27;;;;;;;14.73;9.00;;;;;;;11.55;100.00;102821.44;7376031;19;20021;-74
2022/08/07 05:00:20;;;;;;;13.10;7.57;;;;;;;11.60;100.00;102827.78;7377536;19;20006;-74
2022/08/07 05:03:06;;;;;;;14.75;8.48;;;;;;;11.66;100.00;102835.91;7376459;19;20019;-74
2022/08/07 05:06:05;;;;;;;15.65;8.00;;;;;;;11.68;100.00;102829.88;7377945;19;20110;-73
2022/08/07 05:08:53;;;;;;;20.95;9.18;;;;;;;11.72;100.00;102831.78;7375513;19;20026;-76
2022/08/07 05:11:35;;;;;;;16.35;8.48;;;;;;;11.77;100.00;102826.75;7372510;19;20024;-74
2022/08/07 05:14:33;;;;;;;15.82;8.38;;;;;;;11.83;100.00;102834.88;7373491;19;20018;-75
2022/08/07 05:17:28;;;;;;;16.75;8.13;;;;;;;11.89;100.00;102832.50;7375790;19;20390;-74
2022/08/07 05:20:23;;;;;;;18.33;8.57;;;;;;;12.03;100.00;102817.25;7374306;19;20332;-73
2022/08/07 05:23:02;;;;;;;10.73;6.90;;;;;;;12.23;100.00;102821.56;7376462;19;20007;-76
2022/08/07 05:25:35;;;;;;;14.07;7.82;;;;;;;12.48;100.00;102828.59;7374679;19;20018;-74
2022/08/07 05:28:27;;;;;;;16.15;8.32;;;;;;;12.69;100.00;102839.91;7373535;19;20594;-74
2022/08/07 05:31:05;;;;;;;15.23;7.97;;;;;;;12.84;100.00;102839.56;7376099;19;20126;-74
2022/08/07 05:33:38;;;;;;;17.50;9.43;;;;;;;13.10;100.00;102832.59;7376767;19;20009;-74
2022/08/07 05:36:20;;;;;;;14.27;7.40;;;;;;;13.41;100.00;102819.66;7376510;19;20220;-74
2022/08/07 05:39:05;;;;;;;14.98;8.48;;;;;;;13.68;100.00;102824.88;7372427;19;20015;-74
2022/08/07 05:41:57;;;;;;;14.95;8.18;;;;;;;14.03;100.00;102828.63;7375882;19;20015;-74
2022/08/07 05:44:37;;;;;;;15.73;8.40;;;;;;;14.32;100.00;102832.16;7375259;19;20010;-74
2022/08/07 05:47:22;;;;;;;14.18;8.70;;;;;;;14.56;100.00;102831.97;7372418;19;20159;-74
2022/08/07 05:50:17;;;;;;;17.10;8.27;;;;;;;14.79;100.00;102832.59;7373745;19;20320;-73
2022/08/07 05:52:48;;;;;;;17.80;9.32;;;;;;;15.00;100.00;102829.66;7373809;19;20043;-77
2022/08/07 05:55:21;;;;;;;15.55;8.55;;;;;;;15.27;100.00;102829.47;7372778;19;20017;-76
2022/08/07 05:58:13;;;;;;;15.88;8.30;;;;;;;15.51;100.00;102834.50;7372742;19;20018;-74
2022/08/07 06:00:46;;;;;;;;;;;;;;;15.79;100.00;102831.66;7377324;19;20014;-76
2022/08/07 06:03:21;;;;;;;;;;;;;;;16.00;100.00;102823.31;7374223;19;19929;-75
2022/08/07 06:05:53;;;;;;;17.13;8.23;;;;;;;16.28;100.00;102824.81;7374749;19;19923;-77
2022/08/07 06:08:26;;;;;;;20.65;9.23;;;;;;;16.57;100.00;102826.31;7375759;19;20019;-75
2022/08/07 06:11:03;;;;;;;16.70;9.32;;;;;;;16.80;100.00;102828.53;7375366;19;20034;-75
2022/08/07 06:13:33;;;;;;;15.45;8.80;;;;;;;16.97;100.00;102822.69;7371420;19;20054;-75
2022/08/07 06:16:29;;;;;;;16.67;8.23;;;;;;;17.30;100.00;102810.88;7373972;19;20022;-75
2022/08/07 06:19:04;;;;;;;17.38;8.80;;;;;;;17.45;100.00;102827.06;7370081;19;20050;-75
2022/08/07 06:21:37;;;;;;;13.07;8.18;;;;;;;17.64;100.00;102833.56;7372142;19;20018;-75
2022/08/07 06:24:29;;;;;;;15.43;8.75;;;;;;;17.83;100.00;102832.97;7370180;19;20008;-76
2022/08/07 06:27:25;;;;;;;15.35;7.53;;;;;;;17.95;100.00;102826.94;7376355;19;20007;-76
2022/08/07 06:30:17;;;;;;;14.38;7.32;;;;;;;18.38;100.00;102836.38;7372664;19;20019;-75
2022/08/07 06:33:07;;;;;;;13.05;6.50;;;;;;;18.58;100.00;102834.88;7377631;19;20420;-74
2022/08/07 06:35:45;;;;;;;11.52;6.70;;;;;;;18.44;100.00;102836.47;7379278;19;20040;-81
2022/08/07 06:38:37;;;;;;;12.50;7.03;;;;;;;18.65;100.00;102829.66;7381704;19;20494;-73
2022/08/07 06:41:26;;;;;;;13.98;7.05;;;;;;;18.79;97.90;102828.03;7378912;19;20015;-81
2022/08/07 06:44:20;;;;;;;15.05;6.57;;;;;;;18.81;99.26;102826.28;7384853;19;20052;-79
2022/08/07 06:46:54;;;;;;;13.60;7.55;;;;;;;19.08;98.71;102826.56;7383670;19;20369;-80
2022/08/07 06:49:42;;;;;;;14.25;6.70;;;;;;;19.17;98.56;102831.97;7383600;19;20022;-79
2022/08/07 06:52:25;;;;;;;12.02;6.82;;;;;;;19.27;96.75;102833.81;7373623;19;20015;-76
2022/08/07 06:55:22;;;;;;;;;;;;;;;;;;;;;
2022/08/07 06:58:29;;;;;;;14.18;7.00;;;;;;;19.81;93.80;102827.16;7370874;19;20037;-77
2022/08/07 07:01:41;;;;;;;12.32;6.60;;;;;;;19.64;91.47;102828.84;7370272;19;20090;-77
2022/08/07 07:04:32;;;;;;;12.88;7.22;;;;;;;20.02;91.40;102828.16;7371601;19;20515;-77
2022/08/07 07:07:12;;;;;;;15.68;7.35;;;;;;;20.28;90.14;102831.84;7377686;19;20015;-80
2022/08/07 07:10:02;;;;;;;14.32;8.40;;;;;;;20.12;85.00;102838.00;7378574;19;20013;-81
2022/08/07 07:12:41;;;;;;;16.08;6.93;;;;;;;20.36;85.71;102838.13;7380580;19;20491;-79
2022/08/07 07:15:22;;;;;;;15.20;7.13;;;;;;;20.46;84.03;102847.97;7379311;19;20010;-79
2022/08/07 07:18:11;;;;;;;13.68;6.10;;;;;;;20.96;84.10;102847.19;7379000;19;20003;-79
2022/08/07 07:20:45;;;;;;;12.10;6.35;;;;;;;20.92;78.41;102850.75;7377314;19;20010;-79
2022/08/07 07:23:19;;;;;;;13.48;7.32;;;;;;;21.14;78.44;102846.34;7374274;19;20006;-80
2022/08/07 07:26:15;;;;;;;17.33;8.07;;;;;;;20.84;76.94;102842.72;7373725;19;20026;-73
2022/08/07 07:29:16;;;;;;;16.55;8.43;;;;;;;21.02;78.63;102836.53;7369085;19;20481;-75
2022/08/07 07:32:13;;;;;;;11.23;6.00;;;;;;;21.04;74.14;102837.44;7373328;19;20038;-76
2022/08/07 07:34:50;;;;;;;11.32;5.20;;;;;;;20.87;73.85;102828.50;7375079;19;20039;-74
2022/08/07 07:37:22;;;;;;;11.18;5.70;;;;;;;21.19;71.05;102832.13;7373906;19;20025;-78
2022/08/07 07:40:18;;;;;;;10.60;5.15;;;;;;;21.39;70.00;102825.94;7374572;19;20007;-75
2022/08/07 07:42:51;;;;;;;11.32;6.30;;;;;;;20.98;70.60;102829.44;7373802;19;20010;-74
2022/08/07 07:45:28;;;;;;;9.45;5.50;;;;;;;21.57;70.70;102843.72;7372777;19;20686;-77
2022/08/07 07:48:22;;;;;;;9.80;3.50;;;;;;;22.12;67.73;102817.81;7373719;19;20014;-77
2022/08/07 07:51:08;;;;;;;8.38;4.25;;;;;;;21.61;64.51;102822.38;7371745;19;20014;-77
2022/08/07 07:53:47;;;;;;;8.50;3.83;;;;;;;21.80;61.52;102818.78;7371267;19;20018;-78
2022/08/07 07:56:23;;;;;;;8.70;3.95;;;;;;;22.23;63.43;102821.31;7372289;19;21095;-78
2022/08/07 07:59:05;;;;;;;10.02;4.35;;;;;;;22.10;60.91;102816.91;7374262;19;20002;-78
2022/08/07 08:01:44;;;;;;;10.27;4.55;;;;;;;22.33;62.29;102814.16;7372049;19;20130;-76
2022/08/07 08:04:36;;;;;;;8.07;4.50;;;;;;;22.87;61.63;102815.69;7374701;19;20574;-79
2022/08/07 08:07:13;;;;;;;11.18;5.28;;;;;;;22.67;59.12;102815.78;7378441;19;20021;-78
2022/08/07 08:09:49;;;;;;;10.38;4.57;;;;;;;21.65;60.17;102818.81;7375793;19;20489;-78
2022/08/07 08:12:35;;;;;;;10.95;5.53;;;;;;;22.12;62.56;102821.38;7374236;19;20437;-78
2022/08/07 08:15:25;;;;;;;9.65;4.68;;;;;;;22.05;60.04;102813.38;7370713;19;20597;-78
2022/08/07 08:18:17;;;;;;;9.20;4.00;;;;;;;22.16;59.14;102809.78;7373781;19;20253;-77
2022/08/07 08:20:49;;;;;;;8.90;4.33;;;;;;;22.27;57.90;102817.75;7372921;19;20007;-78
2022/08/07 08:28:59;;;;;;;7.93;4.43;;;;;;;22.99;54.92;102803.97;7372941;19;20297;-78
2022/08/07 08:31:35;;;;;;;7.88;4.13;;;;;;;23.21;54.18;102802.03;7380223;19;20018;-78
2022/08/07 08:34:27;;;;;;;8.35;4.38;;;;;;;23.11;54.23;102799.44;7378283;19;20388;-79
2022/08/07 08:36:59;;;;;;;8.75;4.35;;;;;;;22.54;56.83;102806.03;7380257;19;20455;-78
2022/08/07 08:39:34;;;;;;;;;;;;;;;23.09;54.83;102801.22;7381122;19;20027;-77
2022/08/07 08:42:28;;;;;;;10.55;4.28;;;;;;;23.77;54.93;102802.44;7377621;19;19914;-79
2022/08/07 08:45:07;;;;;;;10.50;4.72;;;;;;;23.73;53.48;102797.13;7380058;19;20025;-79
2022/08/07 08:47:45;;;;;;;;;;;;;;;23.95;50.90;102806.66;7378534;19;20022;-78
2022/08/07 08:50:28;;;;;;;7.43;4.03;;;;;;;23.97;52.05;102791.47;7378888;19;20291;-78
2022/08/07 08:53:18;;;;;;;8.85;4.40;;;;;;;24.21;52.08;102798.31;7376936;19;20341;-78
2022/08/07 08:55:57;;;;;;;9.10;4.40;;;;;;;23.75;53.44;102798.00;7377865;19;20045;-77
2022/08/07 08:58:37;;;;;;;9.57;4.68;;;;;;;23.90;53.42;102796.94;7379975;19;20070;-78
2022/08/07 09:01:16;;;;;;;9.10;4.30;;;;;;;24.05;51.45;102789.56;7378318;19;20022;-78
2022/08/07 09:04:00;;;;;;;8.77;4.22;;;;;;;24.26;51.70;102803.66;7375636;19;20073;-79
2022/08/07 09:06:53;;;;;;;11.45;4.65;;;;;;;24.10;51.77;102797.56;7377808;19;20485;-78
2022/08/07 09:09:43;;;;;;;10.48;4.57;;;;;;;24.34;51.97;102802.66;7377751;19;20340;-78
2022/08/07 09:12:39;;;;;;;8.38;4.28;;;;;;;24.55;51.09;102796.13;7376007;19;20019;-78
2022/08/07 09:15:27;;;;;;;8.02;4.60;;;;;;;23.93;51.07;102805.78;7378412;19;20643;-78
2022/08/07 09:18:33;;;;;;;7.75;4.20;;;;;;;23.38;53.84;102808.13;7378181;19;20395;-78
2022/08/07 09:21:14;;;;;;;8.13;4.25;;;;;;;23.51;54.23;102804.44;7375874;19;20030;-78
2022/08/07 09:24:22;;;;;;;7.40;4.18;;;;;;;23.92;51.88;102801.34;7376937;19;20086;-78
2022/08/07 09:27:25;;;;;;;7.75;3.88;;;;;;;24.38;51.65;102792.78;7378421;19;20320;-78
2022/08/07 09:30:06;;;;;;;7.10;3.88;;;;;;;24.22;50.37;102796.53;7378176;19;20044;-73
2022/08/07 09:32:57;;;;;;;5.07;3.10;;;;;;;24.88;48.93;102788.47;7375451;19;20013;-74
2022/08/07 09:35:47;;;;;;;6.80;3.30;;;;;;;24.54;48.05;102793.47;7373057;19;20014;-74
2022/08/07 09:38:44;;;;;;;6.53;3.42;;;;;;;23.62;49.15;102794.53;7376469;19;20003;-74
2022/08/07 09:41:35;;;;;;;7.45;3.42;;;;;;;23.21;49.54;102804.72;7379497;19;20022;-78
2022/08/07 09:44:31;;;;;;;9.90;3.53;;;;;;;23.29;50.45;102798.38;7376206;19;20007;-78
2022/08/07 09:47:35;;;;;;;8.10;3.05;;;;;;;24.02;48.05;102783.38;7375580;19;20010;-77
2022/08/07 09:50:36;;;;;;;7.32;3.40;;;;;;;24.37;46.65;102786.53;7377686;19;20413;-78
2022/08/07 09:53:16;;;;;;;5.47;3.13;;;;;;;24.43;46.24;102781.06;7376385;19;20010;-78
2022/08/07 09:56:12;;;;;;;8.05;3.10;;;;;;;23.47;48.02;102781.28;7378921;19;20006;-77
2022/08/07 09:59:02;;;;;;;7.05;2.60;;;;;;;24.54;44.79;102777.34;7377158;19;20021;-77
2022/08/07 10:02:02;;;;;;;5.28;3.03;;;;;;;24.84;44.26;102768.84;7374442;19;20010;-74
2022/08/07 10:05:00;;;;;;;7.63;3.20;;;;;;;24.88;45.30;102767.91;7378124;19;20010;-73
2022/08/07 10:07:57;;;;;;;6.78;2.80;;;;;;;25.13;43.83;102763.00;7376016;19;20078;-74
2022/08/07 10:10:42;;;;;;;6.28;3.08;;;;;;;24.97;43.49;102759.69;7379443;19;20010;-73
2022/08/07 10:13:48;;;;;;;6.95;3.10;;;;;;;25.65;43.29;102757.63;7375446;19;20011;-74
2022/08/07 10:17:09;;;;;;;7.57;3.83;;;;;;;25.06;44.77;102755.97;7375039;19;20013;-75
2022/08/07 10:20:02;;;;;;;6.53;3.38;;;;;;;25.43;43.54;102745.47;7373390;19;20013;-74
2022/08/07 10:23:03;;;;;;;7.15;3.60;;;;;;;25.58;43.52;102745.19;7374262;19;20035;-73
2022/08/07 10:25:51;;;;;;;7.85;3.35;;;;;;;26.18;44.46;102747.53;7374268;19;20010;-73
2022/08/07 10:28:48;;;;;;;6.60;3.67;;;;;;;25.14;44.57;102745.09;7374001;19;20014;-73
2022/08/07 10:31:54;;;;;;;6.80;3.80;;;;;;;24.93;47.81;102736.50;7374198;19;20014;-74
2022/08/07 10:34:51;;;;;;;7.80;3.90;;;;;;;24.36;48.75;102736.47;7374050;19;20479;-73
2022/08/07 10:37:37;;;;;;;7.53;3.33;;;;;;;24.28;49.31;102730.34;7375104;19;20015;-77
2022/08/07 10:40:32;;;;;;;7.15;3.63;;;;;;;25.34;47.88;102726.84;7375531;19;20017;-77
2022/08/07 10:43:08;;;;;;;6.30;3.58;;;;;;;25.15;48.06;102718.22;7377376;19;20154;-76
2022/08/07 10:45:41;;;;;;;10.35;3.45;;;;;;;24.95;46.49;102725.75;7382589;19;20006;-77
2022/08/07 10:48:36;;;;;;;6.45;3.08;;;;;;;25.56;45.84;102719.25;7382443;19;20006;-77
2022/08/07 10:51:16;;;;;;;7.03;3.67;;;;;;;25.80;45.04;102715.25;7382865;19;20011;-77
2022/08/07 10:54:14;;;;;;;6.00;3.05;;;;;;;25.41;43.24;102715.97;7377817;19;20010;-77
2022/08/07 10:57:00;;;;;;;6.95;3.53;;;;;;;25.82;45.07;102713.41;7382820;19;20613;-78
2022/08/07 10:59:42;;;;;;;8.82;3.85;;;;;;;25.52;46.17;102705.00;7384696;19;20416;-77
2022/08/07 11:02:23;;;;;;;6.78;3.25;;;;;;;26.23;46.90;102707.09;7383602;19;20065;-77
2022/08/07 11:05:14;;;;;;;8.05;3.63;;;;;;;24.55;50.97;102709.38;7379792;19;20006;-76
2022/08/07 11:07:57;;;;;;;8.30;3.78;;;;;;;25.41;50.20;102697.16;7381162;19;20011;-77
2022/08/07 11:10:39;;;;;;;9.32;3.53;;;;;;;25.17;50.99;102708.34;7380788;19;20014;-77
2022/08/07 11:13:17;;;;;;;6.85;3.38;;;;;;;23.55;53.63;102707.13;7382453;19;20014;-77
2022/08/07 11:16:13;;;;;;;8.82;3.70;;;;;;;24.23;53.09;102691.94;7380013;19;20007;-78
2022/08/07 11:18:53;;;;;;;9.43;3.80;;;;;;;24.20;54.76;102700.03;7380772;19;20519;-76
2022/08/07 11:21:36;;;;;;;7.53;3.38;;;;;;;24.25;52.72;102692.81;7381729;19;20014;-76
2022/08/07 11:24:22;;;;;;;8.15;3.70;;;;;;;24.35;53.30;102694.47;7379086;19;20010;-76
2022/08/07 11:27:05;;;;;;;6.20;3.25;;;;;;;24.30;52.34;102693.66;7383074;19;20006;-78
2022/08/07 11:29:43;;;;;;;9.03;3.47;;;;;;;25.22;51.36;102681.41;7380390;19;20082;-77
2022/08/07 11:32:19;;;;;;;;;;;;;;;24.67;50.88;102680.56;7380126;19;20011;-76
2022/08/07 11:34:58;;;;;;;5.25;2.65;;;;;;;24.66;48.41;102676.13;7381337;19;20232;-77
2022/08/07 11:37:39;;;;;;;;;;;;;;;24.33;50.78;102682.91;7382981;19;20094;-76
2022/08/07 11:40:43;;;;;;;4.10;2.63;;;;;;;24.10;49.70;102680.50;7380308;19;19910;-78
2022/08/07 11:43:23;;;;;;;7.88;2.90;;;;;;;24.65;49.57;102682.41;7380693;19;20010;-76
2022/08/07 11:46:30;;;;;;;6.07;3.00;;;;;;;23.86;49.12;102680.88;7381347;19;20018;-77
2022/08/07 11:49:28;;;;;;;5.38;2.65;;;;;;;24.53;50.03;102668.28;7379493;19;20010;-73
2022/08/07 11:52:47;;;;;;;5.25;2.38;;;;;;;25.26;46.76;102670.59;7376486;19;20514;-73
2022/08/07 11:55:33;;;;;;;6.75;2.63;;;;;;;24.48;44.82;102675.53;7377619;19;20557;-74
2022/08/07 11:58:35;;;;;;;4.53;2.20;;;;;;;23.92;46.02;102677.22;7377250;19;20026;-72
2022/08/07 12:01:15;;;;;;;4.80;2.20;;;;;;;24.25;45.57;102674.03;7380712;19;20007;-73
2022/08/07 12:04:16;;;;;;;3.13;1.95;;;;;;;24.90;44.15;102669.47;7381319;19;20473;-73
2022/08/07 12:06:51;;;;;;;3.72;2.13;;;;;;;24.30;44.62;102665.97;7380840;19;20436;-73
2022/08/07 12:09:37;;;;;;;6.40;2.80;;;;;;;24.31;44.61;102673.97;7381111;19;20017;-73
2022/08/07 12:12:12;;;;;;;4.25;2.38;;;;;;;24.37;46.06;102663.16;7381525;19;20014;-73
2022/08/07 12:14:50;;;;;;;5.67;2.80;;;;;;;24.26;45.12;102674.97;7381322;19;20074;-73
2022/08/07 12:17:39;;;;;;;6.20;2.70;;;;;;;23.83;45.29;102675.53;7382034;19;20011;-73
2022/08/07 12:20:34;;;;;;;6.32;2.80;;;;;;;24.03;45.60;102675.25;7383754;19;20464;-73
2022/08/07 12:23:24;;;;;;;6.63;2.88;;;;;;;23.82;46.25;102667.53;7379423;19;20020;-73
2022/08/07 12:26:28;;;;;;;5.75;2.90;;;;;;;24.31;46.45;102667.72;7381110;19;20015;-74
2022/08/07 12:29:17;;;;;;;6.63;2.75;;;;;;;23.80;46.39;102672.91;7383313;19;20043;-77
2022/08/07 12:32:17;;;;;;;5.30;2.53;;;;;;;23.61;46.77;102677.59;7384660;19;20018;-73
2022/08/07 12:34:51;;;;;;;4.18;2.80;;;;;;;24.23;46.67;102674.97;7380353;19;20043;-72
2022/08/07 12:37:27;;;;;;;6.13;2.72;;;;;;;23.72;46.46;102672.13;7379802;19;20014;-72
2022/08/07 12:40:22;;;;;;;6.00;3.10;;;;;;;23.83;47.47;102666.63;7377498;19;20351;-72